Etusivu
METAR-TAF:

METAR-TAF

Lentoasemat :

Wattisham, Englanti

Leveyspiiri: 52-07N, Pituuspiiri: 000-58E, korkeus merenpinnasta: 87 m

Tämänhetkinen sää

Tämä raportti tehtiin 47 minuuttia sitten, kello 18.50 UTC
Tuuli 10 kn lännestä
Lämpötila 6°C
Kosteus 93%
Ilmanpaine 995 hPa
Näkyvyys 10 km tai enemmän
Hajonneita pilviä 3600 ft:n korkeudessa

METAR: EGUW 121850Z 27010KT 9999 BKN036 06/05 Q0995 RMK BLU

Aika: 19:37 (19:37 UTC)

Sääennuste

Tämä raportti tehtiin 2 tuntia ja 47 minuuttia sitten, kello 16.50 UTC
Ennuste voimassa 12. päivästä klo 18 UTC - 12. päivään klo 24 UTC
Tuuli 12 kn lännestä
Näkyvyys 10 km tai enemmän
Hajonneita pilviä 2000 ft:n korkeudessa
Ajoittain
12. päivästä klo 18 UTC - 12. päivään klo 24 UTC
Muutamia pilviä 2000 ft:n korkeudessa

TAF: EGUW 121650Z 1218/1224 26012KT 9999 BKN020 TEMPO 1218/1224 FEW020

Säähavainnot ja -ennusteet yli 4000 lentoasemalta (METAR- ja TAF-raportit).

Käytössä olevat sääasemat on merkitty karttaan keltaisilla ja punaisilla pisteillä.

Aseta hiiri pisteen päälle nähdäksesi sääaseman nimen.

Klikkaa sitten nähdäksesi säähavainnot ja -ennusteet.

Kartan vaihtaminen: klikkaa mustalla rastilla varustettuja vihreitä pisteitä, niin voit zoomata sisään; viivalla varustettua vihreää pistettä, niin voit zoomata ulos tai vihreitä nuolia, niin pääset viereisille kartoille.


METAR-TAF: